Terminal Aerodrome Forecast
Issued by NWS

Home | Current Version | Previous Version | Text Only | Print | Product List | Glossary On
Versions: 1 2 3 4 5 6 7 8 9 10 11 12 13 14 15 16 17 18 19 20 21 22 23 24
000
FTUS42 KMFL 260550
TAFOPF
TAF
KOPF 260550Z 2606/2706 09006KT P6SM SKC
     FM261300 13010KT P6SM SCT030 SCT250
     FM261900 13012KT P6SM VCSH SCT025 SCT045
     FM270100 VRB03KT P6SM SCT020 SCT250=

USA.gov is the U.S. government's official web portal to all federal, state and local government web resources and services.